sensor_id;sensor_type;location;lat;lon;timestamp;temperature;humidity
75719;DHT22;64340;48.534;-3.036;2023-08-20T00:00:13;20.50;66.00
75719;DHT22;64340;48.534;-3.036;2023-08-20T00:02:42;20.50;66.00
75719;DHT22;64340;48.534;-3.036;2023-08-20T00:05:08;20.50;66.00
75719;DHT22;64340;48.534;-3.036;2023-08-20T00:07:34;20.40;66.10
75719;DHT22;64340;48.534;-3.036;2023-08-20T00:10:00;20.40;66.00
75719;DHT22;64340;48.534;-3.036;2023-08-20T00:12:26;20.40;66.10
75719;DHT22;64340;48.534;-3.036;2023-08-20T00:14:55;20.40;66.10
75719;DHT22;64340;48.534;-3.036;2023-08-20T00:17:22;20.30;66.20
75719;DHT22;64340;48.534;-3.036;2023-08-20T00:19:49;20.30;66.20
75719;DHT22;64340;48.534;-3.036;2023-08-20T00:22:16;20.30;66.20
75719;DHT22;64340;48.534;-3.036;2023-08-20T00:24:42;20.30;66.30
75719;DHT22;64340;48.534;-3.036;2023-08-20T00:27:07;20.30;66.40
75719;DHT22;64340;48.534;-3.036;2023-08-20T00:29:33;20.30;66.30
75719;DHT22;64340;48.534;-3.036;2023-08-20T00:31:59;20.30;66.30
75719;DHT22;64340;48.534;-3.036;2023-08-20T00:34:24;20.30;66.40
75719;DHT22;64340;48.534;-3.036;2023-08-20T00:36:50;20.30;66.40
75719;DHT22;64340;48.534;-3.036;2023-08-20T00:39:16;20.30;66.40
75719;DHT22;64340;48.534;-3.036;2023-08-20T00:41:41;20.30;66.50
75719;DHT22;64340;48.534;-3.036;2023-08-20T00:44:07;20.30;66.60
75719;DHT22;64340;48.534;-3.036;2023-08-20T00:46:32;20.30;66.70
75719;DHT22;64340;48.534;-3.036;2023-08-20T00:48:58;20.30;66.80
75719;DHT22;64340;48.534;-3.036;2023-08-20T00:51:24;20.30;66.90
75719;DHT22;64340;48.534;-3.036;2023-08-20T00:53:50;20.30;66.90
75719;DHT22;64340;48.534;-3.036;2023-08-20T00:56:15;20.30;66.90
75719;DHT22;64340;48.534;-3.036;2023-08-20T00:58:41;20.30;67.00
75719;DHT22;64340;48.534;-3.036;2023-08-20T01:01:07;20.30;67.00
75719;DHT22;64340;48.534;-3.036;2023-08-20T01:03:33;20.20;67.10
75719;DHT22;64340;48.534;-3.036;2023-08-20T01:06:01;20.20;67.30
75719;DHT22;64340;48.534;-3.036;2023-08-20T01:08:33;20.20;67.40
75719;DHT22;64340;48.534;-3.036;2023-08-20T01:11:20;20.30;67.40
75719;DHT22;64340;48.534;-3.036;2023-08-20T01:13:47;20.30;67.50
75719;DHT22;64340;48.534;-3.036;2023-08-20T01:16:12;20.20;67.50
75719;DHT22;64340;48.534;-3.036;2023-08-20T01:18:38;20.20;67.40
75719;DHT22;64340;48.534;-3.036;2023-08-20T01:23:56;20.30;67.50
75719;DHT22;64340;48.534;-3.036;2023-08-20T01:26:35;20.20;67.60
75719;DHT22;64340;48.534;-3.036;2023-08-20T01:29:05;20.10;67.60
75719;DHT22;64340;48.534;-3.036;2023-08-20T01:31:32;20.20;67.70
75719;DHT22;64340;48.534;-3.036;2023-08-20T01:33:58;20.10;67.80
75719;DHT22;64340;48.534;-3.036;2023-08-20T01:36:23;20.10;68.00
75719;DHT22;64340;48.534;-3.036;2023-08-20T01:38:49;20.10;68.00
75719;DHT22;64340;48.534;-3.036;2023-08-20T01:41:14;20.10;68.10
75719;DHT22;64340;48.534;-3.036;2023-08-20T01:43:40;20.10;68.20
75719;DHT22;64340;48.534;-3.036;2023-08-20T01:46:06;20.10;68.30
75719;DHT22;64340;48.534;-3.036;2023-08-20T01:48:32;20.10;68.40
75719;DHT22;64340;48.534;-3.036;2023-08-20T01:50:57;20.10;68.40
75719;DHT22;64340;48.534;-3.036;2023-08-20T01:53:23;20.10;68.40
75719;DHT22;64340;48.534;-3.036;2023-08-20T01:55:49;20.00;68.50
75719;DHT22;64340;48.534;-3.036;2023-08-20T01:58:14;20.00;68.50
75719;DHT22;64340;48.534;-3.036;2023-08-20T02:00:40;20.00;68.50
75719;DHT22;64340;48.534;-3.036;2023-08-20T02:03:06;20.00;68.50
75719;DHT22;64340;48.534;-3.036;2023-08-20T02:05:32;20.00;68.50
75719;DHT22;64340;48.534;-3.036;2023-08-20T02:07:57;20.00;68.40
75719;DHT22;64340;48.534;-3.036;2023-08-20T02:10:23;20.00;68.40
75719;DHT22;64340;48.534;-3.036;2023-08-20T02:12:48;20.00;68.50
75719;DHT22;64340;48.534;-3.036;2023-08-20T02:15:14;20.00;68.40
75719;DHT22;64340;48.534;-3.036;2023-08-20T02:17:39;20.00;68.40
75719;DHT22;64340;48.534;-3.036;2023-08-20T02:20:05;19.90;68.50
75719;DHT22;64340;48.534;-3.036;2023-08-20T02:22:32;19.90;68.50
75719;DHT22;64340;48.534;-3.036;2023-08-20T02:24:59;19.90;68.50
75719;DHT22;64340;48.534;-3.036;2023-08-20T02:27:25;19.90;68.50
75719;DHT22;64340;48.534;-3.036;2023-08-20T02:29:50;19.90;68.40
75719;DHT22;64340;48.534;-3.036;2023-08-20T02:32:16;19.90;68.40
75719;DHT22;64340;48.534;-3.036;2023-08-20T02:34:43;19.90;68.40
75719;DHT22;64340;48.534;-3.036;2023-08-20T02:37:08;19.90;68.50
75719;DHT22;64340;48.534;-3.036;2023-08-20T02:39:34;19.80;68.40
75719;DHT22;64340;48.534;-3.036;2023-08-20T02:41:59;19.80;68.40
75719;DHT22;64340;48.534;-3.036;2023-08-20T02:44:25;19.80;68.40
75719;DHT22;64340;48.534;-3.036;2023-08-20T02:46:50;19.80;68.30
75719;DHT22;64340;48.534;-3.036;2023-08-20T02:49:16;19.80;68.30
75719;DHT22;64340;48.534;-3.036;2023-08-20T02:51:45;19.80;68.30
75719;DHT22;64340;48.534;-3.036;2023-08-20T02:54:10;19.70;68.20
75719;DHT22;64340;48.534;-3.036;2023-08-20T02:56:36;19.70;68.30
75719;DHT22;64340;48.534;-3.036;2023-08-20T02:59:02;19.70;68.30
75719;DHT22;64340;48.534;-3.036;2023-08-20T03:01:27;19.70;68.40
75719;DHT22;64340;48.534;-3.036;2023-08-20T03:03:53;19.70;68.30
75719;DHT22;64340;48.534;-3.036;2023-08-20T03:06:18;19.70;68.30
75719;DHT22;64340;48.534;-3.036;2023-08-20T03:08:45;19.70;68.30
75719;DHT22;64340;48.534;-3.036;2023-08-20T03:11:10;19.70;68.40
75719;DHT22;64340;48.534;-3.036;2023-08-20T03:13:36;19.70;68.50
75719;DHT22;64340;48.534;-3.036;2023-08-20T03:16:01;19.60;68.40
75719;DHT22;64340;48.534;-3.036;2023-08-20T03:18:28;19.60;68.40
75719;DHT22;64340;48.534;-3.036;2023-08-20T03:20:54;19.60;68.40
75719;DHT22;64340;48.534;-3.036;2023-08-20T03:23:21;19.60;68.50
75719;DHT22;64340;48.534;-3.036;2023-08-20T03:25:46;19.60;68.50
75719;DHT22;64340;48.534;-3.036;2023-08-20T03:28:12;19.60;68.50
75719;DHT22;64340;48.534;-3.036;2023-08-20T03:30:37;19.50;68.60
75719;DHT22;64340;48.534;-3.036;2023-08-20T03:33:03;19.50;68.60
75719;DHT22;64340;48.534;-3.036;2023-08-20T03:35:29;19.50;68.60
75719;DHT22;64340;48.534;-3.036;2023-08-20T03:37:54;19.50;68.60
75719;DHT22;64340;48.534;-3.036;2023-08-20T03:40:20;19.50;68.70
75719;DHT22;64340;48.534;-3.036;2023-08-20T03:42:45;19.50;68.70
75719;DHT22;64340;48.534;-3.036;2023-08-20T03:45:11;19.50;68.60
75719;DHT22;64340;48.534;-3.036;2023-08-20T03:47:37;19.50;68.50
75719;DHT22;64340;48.534;-3.036;2023-08-20T03:50:03;19.50;68.40
75719;DHT22;64340;48.534;-3.036;2023-08-20T03:52:29;19.50;68.20
75719;DHT22;64340;48.534;-3.036;2023-08-20T03:54:54;19.50;68.30
75719;DHT22;64340;48.534;-3.036;2023-08-20T03:57:20;19.50;68.20
75719;DHT22;64340;48.534;-3.036;2023-08-20T03:59:46;19.40;68.10
75719;DHT22;64340;48.534;-3.036;2023-08-20T04:02:13;19.40;68.10
75719;DHT22;64340;48.534;-3.036;2023-08-20T04:04:38;19.40;68.00
75719;DHT22;64340;48.534;-3.036;2023-08-20T04:07:04;19.40;67.80
75719;DHT22;64340;48.534;-3.036;2023-08-20T04:09:29;19.40;67.80
75719;DHT22;64340;48.534;-3.036;2023-08-20T04:11:55;19.30;67.80
75719;DHT22;64340;48.534;-3.036;2023-08-20T04:14:21;19.30;67.80
75719;DHT22;64340;48.534;-3.036;2023-08-20T04:16:46;19.30;67.80
75719;DHT22;64340;48.534;-3.036;2023-08-20T04:19:12;19.30;67.70
75719;DHT22;64340;48.534;-3.036;2023-08-20T04:21:37;19.30;67.80
75719;DHT22;64340;48.534;-3.036;2023-08-20T04:24:03;19.30;67.80
75719;DHT22;64340;48.534;-3.036;2023-08-20T04:26:29;19.30;67.90
75719;DHT22;64340;48.534;-3.036;2023-08-20T04:28:54;19.30;68.00
75719;DHT22;64340;48.534;-3.036;2023-08-20T04:31:20;19.20;68.00
75719;DHT22;64340;48.534;-3.036;2023-08-20T04:33:46;19.20;68.00
75719;DHT22;64340;48.534;-3.036;2023-08-20T04:36:11;19.20;68.00
75719;DHT22;64340;48.534;-3.036;2023-08-20T04:38:37;19.20;67.90
75719;DHT22;64340;48.534;-3.036;2023-08-20T04:41:02;19.10;68.00
75719;DHT22;64340;48.534;-3.036;2023-08-20T04:43:28;19.20;68.00
75719;DHT22;64340;48.534;-3.036;2023-08-20T04:45:54;19.10;67.90
75719;DHT22;64340;48.534;-3.036;2023-08-20T04:48:19;19.10;67.70
75719;DHT22;64340;48.534;-3.036;2023-08-20T04:50:46;19.10;67.80
75719;DHT22;64340;48.534;-3.036;2023-08-20T04:53:12;19.10;67.80
75719;DHT22;64340;48.534;-3.036;2023-08-20T04:55:37;19.10;67.90
75719;DHT22;64340;48.534;-3.036;2023-08-20T04:58:03;19.10;68.00
75719;DHT22;64340;48.534;-3.036;2023-08-20T05:00:29;19.00;68.30
75719;DHT22;64340;48.534;-3.036;2023-08-20T05:02:54;19.10;68.30
75719;DHT22;64340;48.534;-3.036;2023-08-20T05:05:21;19.00;68.60
75719;DHT22;64340;48.534;-3.036;2023-08-20T05:07:47;19.00;68.60
75719;DHT22;64340;48.534;-3.036;2023-08-20T05:10:12;19.00;68.70
75719;DHT22;64340;48.534;-3.036;2023-08-20T05:12:38;19.00;68.70
75719;DHT22;64340;48.534;-3.036;2023-08-20T05:15:04;19.00;68.70
75719;DHT22;64340;48.534;-3.036;2023-08-20T05:17:29;19.00;68.70
75719;DHT22;64340;48.534;-3.036;2023-08-20T05:19:55;19.00;68.80
75719;DHT22;64340;48.534;-3.036;2023-08-20T05:22:20;19.00;68.90
75719;DHT22;64340;48.534;-3.036;2023-08-20T05:24:46;19.00;68.90
75719;DHT22;64340;48.534;-3.036;2023-08-20T05:27:15;19.00;69.00
75719;DHT22;64340;48.534;-3.036;2023-08-20T05:29:42;19.00;69.00
75719;DHT22;64340;48.534;-3.036;2023-08-20T05:32:08;19.00;69.00
75719;DHT22;64340;48.534;-3.036;2023-08-20T05:34:33;19.00;69.00
75719;DHT22;64340;48.534;-3.036;2023-08-20T05:36:59;19.00;69.10
75719;DHT22;64340;48.534;-3.036;2023-08-20T05:39:25;19.00;69.10
75719;DHT22;64340;48.534;-3.036;2023-08-20T05:41:51;19.00;69.10
75719;DHT22;64340;48.534;-3.036;2023-08-20T05:44:17;19.10;69.10
75719;DHT22;64340;48.534;-3.036;2023-08-20T05:46:43;19.00;69.10
75719;DHT22;64340;48.534;-3.036;2023-08-20T05:49:08;19.00;69.20
75719;DHT22;64340;48.534;-3.036;2023-08-20T05:51:34;19.00;69.20
75719;DHT22;64340;48.534;-3.036;2023-08-20T05:53:59;19.00;69.30
75719;DHT22;64340;48.534;-3.036;2023-08-20T05:56:25;19.10;69.40
75719;DHT22;64340;48.534;-3.036;2023-08-20T05:58:51;19.10;69.40
75719;DHT22;64340;48.534;-3.036;2023-08-20T06:01:16;19.10;69.50
75719;DHT22;64340;48.534;-3.036;2023-08-20T06:03:42;19.10;69.70
75719;DHT22;64340;48.534;-3.036;2023-08-20T06:06:07;19.10;69.80
75719;DHT22;64340;48.534;-3.036;2023-08-20T06:08:33;19.10;69.90
75719;DHT22;64340;48.534;-3.036;2023-08-20T06:10:59;19.10;69.80
75719;DHT22;64340;48.534;-3.036;2023-08-20T06:13:24;19.20;70.00
75719;DHT22;64340;48.534;-3.036;2023-08-20T06:15:50;19.20;70.10
75719;DHT22;64340;48.534;-3.036;2023-08-20T06:18:15;19.20;70.20
75719;DHT22;64340;48.534;-3.036;2023-08-20T06:20:41;19.20;70.30
75719;DHT22;64340;48.534;-3.036;2023-08-20T06:23:07;19.20;70.50
75719;DHT22;64340;48.534;-3.036;2023-08-20T06:25:32;19.20;70.50
75719;DHT22;64340;48.534;-3.036;2023-08-20T06:27:58;19.20;70.70
75719;DHT22;64340;48.534;-3.036;2023-08-20T06:30:23;19.30;70.80
75719;DHT22;64340;48.534;-3.036;2023-08-20T06:32:49;19.30;70.70
75719;DHT22;64340;48.534;-3.036;2023-08-20T06:35:15;19.30;70.90
75719;DHT22;64340;48.534;-3.036;2023-08-20T06:37:40;19.30;70.90
75719;DHT22;64340;48.534;-3.036;2023-08-20T06:40:06;19.30;71.20
75719;DHT22;64340;48.534;-3.036;2023-08-20T06:42:32;19.40;71.10
75719;DHT22;64340;48.534;-3.036;2023-08-20T06:44:57;19.40;70.90
75719;DHT22;64340;48.534;-3.036;2023-08-20T06:47:23;19.50;71.00
75719;DHT22;64340;48.534;-3.036;2023-08-20T06:49:49;19.30;72.20
75719;DHT22;64340;48.534;-3.036;2023-08-20T06:52:15;19.20;72.80
75719;DHT22;64340;48.534;-3.036;2023-08-20T06:54:40;19.10;73.60
75719;DHT22;64340;48.534;-3.036;2023-08-20T06:57:06;19.00;73.80
75719;DHT22;64340;48.534;-3.036;2023-08-20T06:59:31;19.00;73.90
75719;DHT22;64340;48.534;-3.036;2023-08-20T07:01:57;19.00;74.40
75719;DHT22;64340;48.534;-3.036;2023-08-20T07:04:23;19.10;74.20
75719;DHT22;64340;48.534;-3.036;2023-08-20T07:06:49;18.80;75.00
75719;DHT22;64340;48.534;-3.036;2023-08-20T07:09:15;18.80;75.30
75719;DHT22;64340;48.534;-3.036;2023-08-20T07:11:41;18.80;76.30
75719;DHT22;64340;48.534;-3.036;2023-08-20T07:14:07;18.60;76.70
75719;DHT22;64340;48.534;-3.036;2023-08-20T07:16:32;18.60;77.00
75719;DHT22;64340;48.534;-3.036;2023-08-20T07:18:58;18.70;76.80
75719;DHT22;64340;48.534;-3.036;2023-08-20T07:21:23;18.60;77.10
75719;DHT22;64340;48.534;-3.036;2023-08-20T07:23:49;18.70;76.90
75719;DHT22;64340;48.534;-3.036;2023-08-20T07:26:15;18.70;77.00
75719;DHT22;64340;48.534;-3.036;2023-08-20T07:28:40;18.70;77.20
75719;DHT22;64340;48.534;-3.036;2023-08-20T07:31:22;18.80;77.60
75719;DHT22;64340;48.534;-3.036;2023-08-20T07:33:48;18.90;77.10
75719;DHT22;64340;48.534;-3.036;2023-08-20T07:36:14;19.00;77.20
75719;DHT22;64340;48.534;-3.036;2023-08-20T07:38:40;19.10;76.50
75719;DHT22;64340;48.534;-3.036;2023-08-20T07:41:10;19.10;76.30
75719;DHT22;64340;48.534;-3.036;2023-08-20T07:43:39;19.10;76.10
75719;DHT22;64340;48.534;-3.036;2023-08-20T07:46:06;19.10;76.20
75719;DHT22;64340;48.534;-3.036;2023-08-20T07:48:31;19.20;76.30
75719;DHT22;64340;48.534;-3.036;2023-08-20T07:50:57;19.20;76.70
75719;DHT22;64340;48.534;-3.036;2023-08-20T07:53:22;19.30;76.50
75719;DHT22;64340;48.534;-3.036;2023-08-20T07:55:48;19.40;76.10
75719;DHT22;64340;48.534;-3.036;2023-08-20T07:58:14;19.50;75.90
75719;DHT22;64340;48.534;-3.036;2023-08-20T08:00:40;19.50;75.70
75719;DHT22;64340;48.534;-3.036;2023-08-20T08:03:05;19.50;75.90
75719;DHT22;64340;48.534;-3.036;2023-08-20T08:05:31;19.50;75.40
75719;DHT22;64340;48.534;-3.036;2023-08-20T08:07:57;19.50;75.70
75719;DHT22;64340;48.534;-3.036;2023-08-20T08:10:22;19.50;75.50
75719;DHT22;64340;48.534;-3.036;2023-08-20T08:12:48;19.70;75.30
75719;DHT22;64340;48.534;-3.036;2023-08-20T08:15:13;19.70;75.30
75719;DHT22;64340;48.534;-3.036;2023-08-20T08:17:39;19.80;75.20
75719;DHT22;64340;48.534;-3.036;2023-08-20T08:20:05;19.90;74.90
75719;DHT22;64340;48.534;-3.036;2023-08-20T08:22:31;19.90;75.00
75719;DHT22;64340;48.534;-3.036;2023-08-20T08:24:56;19.90;75.40
75719;DHT22;64340;48.534;-3.036;2023-08-20T08:27:22;19.90;74.90
75719;DHT22;64340;48.534;-3.036;2023-08-20T08:29:47;20.00;75.90
75719;DHT22;64340;48.534;-3.036;2023-08-20T08:32:13;20.00;75.70
75719;DHT22;64340;48.534;-3.036;2023-08-20T08:34:38;20.00;75.30
75719;DHT22;64340;48.534;-3.036;2023-08-20T08:37:04;20.00;75.40
75719;DHT22;64340;48.534;-3.036;2023-08-20T08:39:30;19.90;75.80
75719;DHT22;64340;48.534;-3.036;2023-08-20T08:41:56;20.00;75.70
75719;DHT22;64340;48.534;-3.036;2023-08-20T08:44:27;20.00;74.80
75719;DHT22;64340;48.534;-3.036;2023-08-20T08:46:53;20.10;74.60
75719;DHT22;64340;48.534;-3.036;2023-08-20T08:49:18;20.30;74.70
75719;DHT22;64340;48.534;-3.036;2023-08-20T08:51:44;20.30;74.20
75719;DHT22;64340;48.534;-3.036;2023-08-20T08:54:10;20.40;73.70
75719;DHT22;64340;48.534;-3.036;2023-08-20T08:56:37;20.40;73.80
75719;DHT22;64340;48.534;-3.036;2023-08-20T08:59:02;20.30;73.90
75719;DHT22;64340;48.534;-3.036;2023-08-20T09:01:28;20.30;73.80
75719;DHT22;64340;48.534;-3.036;2023-08-20T09:03:54;20.50;73.70
75719;DHT22;64340;48.534;-3.036;2023-08-20T09:06:19;20.50;73.20
75719;DHT22;64340;48.534;-3.036;2023-08-20T09:08:45;20.60;72.30
75719;DHT22;64340;48.534;-3.036;2023-08-20T09:11:10;20.70;72.80
75719;DHT22;64340;48.534;-3.036;2023-08-20T09:13:37;20.80;72.50
75719;DHT22;64340;48.534;-3.036;2023-08-20T09:16:06;20.90;71.80
75719;DHT22;64340;48.534;-3.036;2023-08-20T09:18:33;20.90;71.80
75719;DHT22;64340;48.534;-3.036;2023-08-20T09:21:05;20.80;72.00
75719;DHT22;64340;48.534;-3.036;2023-08-20T09:23:31;20.80;71.90
75719;DHT22;64340;48.534;-3.036;2023-08-20T09:25:57;20.80;71.20
75719;DHT22;64340;48.534;-3.036;2023-08-20T09:28:22;20.70;71.00
75719;DHT22;64340;48.534;-3.036;2023-08-20T09:30:55;20.70;70.80
75719;DHT22;64340;48.534;-3.036;2023-08-20T09:33:20;20.60;71.20
75719;DHT22;64340;48.534;-3.036;2023-08-20T09:35:49;20.70;71.50
75719;DHT22;64340;48.534;-3.036;2023-08-20T09:38:16;20.70;71.10
75719;DHT22;64340;48.534;-3.036;2023-08-20T09:40:44;20.80;71.50
75719;DHT22;64340;48.534;-3.036;2023-08-20T09:43:10;20.80;71.50
75719;DHT22;64340;48.534;-3.036;2023-08-20T09:45:37;20.90;71.40
75719;DHT22;64340;48.534;-3.036;2023-08-20T09:48:03;21.00;71.20
75719;DHT22;64340;48.534;-3.036;2023-08-20T09:50:31;21.00;70.90
75719;DHT22;64340;48.534;-3.036;2023-08-20T09:53:12;21.00;70.60
75719;DHT22;64340;48.534;-3.036;2023-08-20T09:55:38;21.10;70.60
75719;DHT22;64340;48.534;-3.036;2023-08-20T09:58:05;21.10;70.20
75719;DHT22;64340;48.534;-3.036;2023-08-20T10:00:31;21.10;70.10
75719;DHT22;64340;48.534;-3.036;2023-08-20T10:02:57;21.30;69.90
75719;DHT22;64340;48.534;-3.036;2023-08-20T10:05:23;21.30;69.60
75719;DHT22;64340;48.534;-3.036;2023-08-20T10:07:49;21.30;69.70
75719;DHT22;64340;48.534;-3.036;2023-08-20T10:10:15;21.10;69.30
75719;DHT22;64340;48.534;-3.036;2023-08-20T10:12:42;21.20;69.90
75719;DHT22;64340;48.534;-3.036;2023-08-20T10:15:09;21.20;70.00
75719;DHT22;64340;48.534;-3.036;2023-08-20T10:17:35;21.30;70.00
75719;DHT22;64340;48.534;-3.036;2023-08-20T10:20:03;21.30;69.80
75719;DHT22;64340;48.534;-3.036;2023-08-20T10:25:01;21.50;68.30
75719;DHT22;64340;48.534;-3.036;2023-08-20T10:27:30;21.50;68.90
75719;DHT22;64340;48.534;-3.036;2023-08-20T10:29:57;21.50;69.00
75719;DHT22;64340;48.534;-3.036;2023-08-20T10:35:07;21.50;69.20
75719;DHT22;64340;48.534;-3.036;2023-08-20T10:37:34;21.50;69.30
75719;DHT22;64340;48.534;-3.036;2023-08-20T10:39:59;21.50;68.90
75719;DHT22;64340;48.534;-3.036;2023-08-20T10:42:26;21.50;68.00
75719;DHT22;64340;48.534;-3.036;2023-08-20T10:44:58;21.60;67.40
75719;DHT22;64340;48.534;-3.036;2023-08-20T10:47:24;21.60;68.00
75719;DHT22;64340;48.534;-3.036;2023-08-20T10:49:53;21.70;68.60
75719;DHT22;64340;48.534;-3.036;2023-08-20T10:52:19;21.90;64.70
75719;DHT22;64340;48.534;-3.036;2023-08-20T10:54:45;22.10;65.00
75719;DHT22;64340;48.534;-3.036;2023-08-20T10:57:11;22.10;63.60
75719;DHT22;64340;48.534;-3.036;2023-08-20T10:59:39;22.00;64.20
75719;DHT22;64340;48.534;-3.036;2023-08-20T11:02:05;22.00;64.60
75719;DHT22;64340;48.534;-3.036;2023-08-20T11:04:36;21.90;65.50
75719;DHT22;64340;48.534;-3.036;2023-08-20T11:07:01;21.90;65.40
75719;DHT22;64340;48.534;-3.036;2023-08-20T11:09:29;22.00;65.30
75719;DHT22;64340;48.534;-3.036;2023-08-20T11:11:55;21.90;66.10
75719;DHT22;64340;48.534;-3.036;2023-08-20T11:14:21;21.90;66.20
75719;DHT22;64340;48.534;-3.036;2023-08-20T11:16:47;21.90;66.40
75719;DHT22;64340;48.534;-3.036;2023-08-20T11:19:14;21.90;66.60
75719;DHT22;64340;48.534;-3.036;2023-08-20T11:21:41;21.90;66.70
75719;DHT22;64340;48.534;-3.036;2023-08-20T11:24:07;21.90;66.90
75719;DHT22;64340;48.534;-3.036;2023-08-20T11:26:36;21.90;67.10
75719;DHT22;64340;48.534;-3.036;2023-08-20T11:29:08;21.90;67.10
75719;DHT22;64340;48.534;-3.036;2023-08-20T11:31:36;21.90;67.00
75719;DHT22;64340;48.534;-3.036;2023-08-20T11:34:03;21.90;67.20
75719;DHT22;64340;48.534;-3.036;2023-08-20T11:36:29;21.90;67.10
75719;DHT22;64340;48.534;-3.036;2023-08-20T11:38:54;21.90;67.10
75719;DHT22;64340;48.534;-3.036;2023-08-20T11:41:20;21.90;67.10
75719;DHT22;64340;48.534;-3.036;2023-08-20T11:43:47;21.90;67.00
75719;DHT22;64340;48.534;-3.036;2023-08-20T11:46:13;21.90;67.20
75719;DHT22;64340;48.534;-3.036;2023-08-20T11:49:26;21.90;67.10
75719;DHT22;64340;48.534;-3.036;2023-08-20T11:51:29;21.90;67.20
75719;DHT22;64340;48.534;-3.036;2023-08-20T11:53:56;21.90;67.20
75719;DHT22;64340;48.534;-3.036;2023-08-20T11:56:22;22.00;67.20
75719;DHT22;64340;48.534;-3.036;2023-08-20T11:58:51;22.00;67.20
75719;DHT22;64340;48.534;-3.036;2023-08-20T12:01:20;22.00;67.20
75719;DHT22;64340;48.534;-3.036;2023-08-20T12:03:45;22.00;67.10
75719;DHT22;64340;48.534;-3.036;2023-08-20T12:06:21;22.10;67.10
75719;DHT22;64340;48.534;-3.036;2023-08-20T12:08:48;22.10;67.00
75719;DHT22;64340;48.534;-3.036;2023-08-20T12:11:14;22.10;67.10
75719;DHT22;64340;48.534;-3.036;2023-08-20T12:13:40;22.10;67.00
75719;DHT22;64340;48.534;-3.036;2023-08-20T12:16:06;22.10;67.00
75719;DHT22;64340;48.534;-3.036;2023-08-20T12:18:31;22.10;67.00
75719;DHT22;64340;48.534;-3.036;2023-08-20T12:20:57;22.20;67.00
75719;DHT22;64340;48.534;-3.036;2023-08-20T12:23:23;22.20;66.90
75719;DHT22;64340;48.534;-3.036;2023-08-20T12:25:51;22.50;62.20
75719;DHT22;64340;48.534;-3.036;2023-08-20T12:28:17;22.50;63.30
75719;DHT22;64340;48.534;-3.036;2023-08-20T12:30:43;22.50;64.70
75719;DHT22;64340;48.534;-3.036;2023-08-20T12:33:09;22.30;65.00
75719;DHT22;64340;48.534;-3.036;2023-08-20T12:35:35;22.30;65.50
75719;DHT22;64340;48.534;-3.036;2023-08-20T12:38:01;22.30;65.30
75719;DHT22;64340;48.534;-3.036;2023-08-20T12:40:26;22.30;65.60
75719;DHT22;64340;48.534;-3.036;2023-08-20T12:42:52;22.30;65.70
75719;DHT22;64340;48.534;-3.036;2023-08-20T12:45:17;22.30;65.80
75719;DHT22;64340;48.534;-3.036;2023-08-20T12:47:43;22.30;65.80
75719;DHT22;64340;48.534;-3.036;2023-08-20T12:50:09;22.30;65.80
75719;DHT22;64340;48.534;-3.036;2023-08-20T12:52:36;22.30;65.80
75719;DHT22;64340;48.534;-3.036;2023-08-20T12:55:02;22.30;65.80
75719;DHT22;64340;48.534;-3.036;2023-08-20T12:57:28;22.30;66.00
75719;DHT22;64340;48.534;-3.036;2023-08-20T12:59:53;22.30;66.00
75719;DHT22;64340;48.534;-3.036;2023-08-20T13:02:19;22.30;66.00
75719;DHT22;64340;48.534;-3.036;2023-08-20T13:04:46;22.30;65.90
75719;DHT22;64340;48.534;-3.036;2023-08-20T13:07:12;22.30;66.00
75719;DHT22;64340;48.534;-3.036;2023-08-20T13:09:38;22.40;66.10
75719;DHT22;64340;48.534;-3.036;2023-08-20T13:12:04;22.40;66.00
75719;DHT22;64340;48.534;-3.036;2023-08-20T13:14:31;22.40;66.00
75719;DHT22;64340;48.534;-3.036;2023-08-20T13:16:56;22.50;66.00
75719;DHT22;64340;48.534;-3.036;2023-08-20T13:19:22;22.40;66.10
75719;DHT22;64340;48.534;-3.036;2023-08-20T13:21:48;22.40;66.00
75719;DHT22;64340;48.534;-3.036;2023-08-20T13:24:13;22.50;66.00
75719;DHT22;64340;48.534;-3.036;2023-08-20T13:26:39;22.60;63.10
75719;DHT22;64340;48.534;-3.036;2023-08-20T13:29:05;22.70;63.50
75719;DHT22;64340;48.534;-3.036;2023-08-20T13:31:30;22.70;64.00
75719;DHT22;64340;48.534;-3.036;2023-08-20T13:33:56;22.60;63.80
75719;DHT22;64340;48.534;-3.036;2023-08-20T13:36:21;22.60;64.60
75719;DHT22;64340;48.534;-3.036;2023-08-20T13:38:47;22.60;64.70
75719;DHT22;64340;48.534;-3.036;2023-08-20T13:41:12;22.60;64.60
75719;DHT22;64340;48.534;-3.036;2023-08-20T13:43:38;22.60;64.10
75719;DHT22;64340;48.534;-3.036;2023-08-20T13:46:04;22.70;63.90
75719;DHT22;64340;48.534;-3.036;2023-08-20T13:48:29;22.70;64.10
75719;DHT22;64340;48.534;-3.036;2023-08-20T13:50:55;22.60;63.80
75719;DHT22;64340;48.534;-3.036;2023-08-20T13:53:20;22.60;64.20
75719;DHT22;64340;48.534;-3.036;2023-08-20T13:55:46;22.60;63.00
75719;DHT22;64340;48.534;-3.036;2023-08-20T13:58:12;22.60;63.80
75719;DHT22;64340;48.534;-3.036;2023-08-20T14:00:37;22.60;62.70
75719;DHT22;64340;48.534;-3.036;2023-08-20T14:03:03;22.60;63.50
75719;DHT22;64340;48.534;-3.036;2023-08-20T14:05:29;22.60;63.50
75719;DHT22;64340;48.534;-3.036;2023-08-20T14:07:55;22.60;64.10
75719;DHT22;64340;48.534;-3.036;2023-08-20T14:10:20;22.60;64.00
75719;DHT22;64340;48.534;-3.036;2023-08-20T14:12:46;22.60;62.20
75719;DHT22;64340;48.534;-3.036;2023-08-20T14:15:12;22.60;61.90
75719;DHT22;64340;48.534;-3.036;2023-08-20T14:17:37;22.60;63.00
75719;DHT22;64340;48.534;-3.036;2023-08-20T14:20:03;22.60;63.60
75719;DHT22;64340;48.534;-3.036;2023-08-20T14:22:29;22.60;64.00
75719;DHT22;64340;48.534;-3.036;2023-08-20T14:24:54;22.60;64.40
75719;DHT22;64340;48.534;-3.036;2023-08-20T14:27:20;22.60;64.70
75719;DHT22;64340;48.534;-3.036;2023-08-20T14:29:47;22.60;64.90
75719;DHT22;64340;48.534;-3.036;2023-08-20T14:32:13;22.60;65.00
75719;DHT22;64340;48.534;-3.036;2023-08-20T14:34:38;22.60;65.10
75719;DHT22;64340;48.534;-3.036;2023-08-20T14:37:04;22.60;65.30
75719;DHT22;64340;48.534;-3.036;2023-08-20T14:39:30;22.60;65.40
75719;DHT22;64340;48.534;-3.036;2023-08-20T14:41:57;22.60;65.50
75719;DHT22;64340;48.534;-3.036;2023-08-20T14:44:23;22.60;65.60
75719;DHT22;64340;48.534;-3.036;2023-08-20T14:46:48;22.60;65.70
75719;DHT22;64340;48.534;-3.036;2023-08-20T14:49:14;22.60;65.90
75719;DHT22;64340;48.534;-3.036;2023-08-20T14:51:39;22.60;65.90
75719;DHT22;64340;48.534;-3.036;2023-08-20T14:54:05;22.60;66.00
75719;DHT22;64340;48.534;-3.036;2023-08-20T14:56:31;22.60;66.00
75719;DHT22;64340;48.534;-3.036;2023-08-20T14:58:56;22.70;66.00
75719;DHT22;64340;48.534;-3.036;2023-08-20T15:01:22;22.70;66.10
75719;DHT22;64340;48.534;-3.036;2023-08-20T15:03:47;22.70;66.10
75719;DHT22;64340;48.534;-3.036;2023-08-20T15:06:13;22.70;66.10
75719;DHT22;64340;48.534;-3.036;2023-08-20T15:08:39;22.70;66.20
75719;DHT22;64340;48.534;-3.036;2023-08-20T15:11:05;22.70;66.20
75719;DHT22;64340;48.534;-3.036;2023-08-20T15:13:31;22.70;66.50
75719;DHT22;64340;48.534;-3.036;2023-08-20T15:15:57;22.70;66.40